Terminal Aerodrome Forecast
Issued by NWS

Home | Current Version | Previous Version | Text Only | Print | Product List | Glossary On
Versions: 1 2 3 4 5 6 7 8 9 10 11 12 13
953
FTUS46 KHNX 242320
TAFVIS
TAF
KVIS 242320Z 2500/2524 VRB04KT P6SM OVC070
     FM250500 11012KT 5SM -RA BKN040 OVC050
     FM250800 12005KT P6SM BKN040 OVC050
     FM251800 32010KT P6SM BKN100=

USA.gov is the U.S. government's official web portal to all federal, state and local government web resources and services.